Time;durP1;ratioP1;P1;durP2;ratioP2;P2;SDS_P1;SDS_P2;PMS_P1;PMS_P2;Temp;Humidity;BMP_temperature;BMP_pressure;BME280_temperature;BME280_humidity;BME280_pressure;Samples;Min_cycle;Max_cycle;Signal;HPM_P1;HPM_P2
2021/01/01 00:03:44;;;;;;;37.22;19.75;;;;;;;4.62;81.23;99367.47;8716878;33;20242;-73
2021/01/01 00:08:47;;;;;;;40.00;19.42;;;;;;;4.72;80.90;99364.25;8716903;33;20179;-71
2021/01/01 00:13:51;;;;;;;34.73;18.33;;;;;;;4.59;80.36;99369.44;8715655;33;20970;-70
2021/01/01 00:18:54;;;;;;;32.80;17.27;;;;;;;4.45;80.46;99371.09;8716312;33;22588;-71
2021/01/01 00:23:58;;;;;;;33.03;17.03;;;;;;;4.31;80.45;99378.97;8716551;33;20183;-70
2021/01/01 00:29:00;;;;;;;40.57;19.30;;;;;;;4.30;80.57;99371.97;8716726;33;20152;-70
2021/01/01 00:34:02;;;;;;;37.00;20.83;;;;;;;4.32;80.40;99379.81;8716008;33;20189;-70
2021/01/01 00:39:06;;;;;;;38.33;21.33;;;;;;;4.33;80.12;99381.50;8715829;33;20155;-70
2021/01/01 00:44:08;;;;;;;47.10;22.45;;;;;;;4.41;79.72;99379.28;8665802;33;20180;-70
2021/01/01 00:49:11;;;;;;;42.97;21.13;;;;;;;4.52;79.97;99376.03;8663543;33;20180;-70
2021/01/01 00:54:14;;;;;;;79.93;32.90;;;;;;;4.61;79.75;99383.44;8712416;33;20245;-71
2021/01/01 00:59:17;;;;;;;78.50;32.75;;;;;;;4.62;79.89;99371.91;8720502;33;20244;-71
2021/01/01 01:04:19;;;;;;;57.57;26.30;;;;;;;4.62;79.86;99377.19;8721502;33;20263;-70
2021/01/01 01:09:22;;;;;;;48.78;23.00;;;;;;;4.68;79.76;99375.03;8721055;33;20658;-70
2021/01/01 01:14:24;;;;;;;52.03;26.47;;;;;;;4.69;79.62;99378.56;8695658;33;20191;-71
2021/01/01 01:19:27;;;;;;;59.97;26.80;;;;;;;4.67;79.91;99375.13;8695680;33;20223;-71
2021/01/01 01:24:30;;;;;;;53.00;25.00;;;;;;;4.66;79.62;99381.34;8720808;33;20189;-70
2021/01/01 01:29:32;;;;;;;77.70;32.47;;;;;;;4.70;79.67;99396.13;8719994;33;20191;-70
2021/01/01 01:34:35;;;;;;;52.95;27.55;;;;;;;4.71;79.88;99392.53;8720325;33;20421;-73
2021/01/01 01:39:38;;;;;;;66.50;28.58;;;;;;;4.69;79.62;99394.44;8719658;33;20148;-73
2021/01/01 01:44:40;;;;;;;59.08;27.13;;;;;;;4.67;79.62;99397.16;8714690;33;20143;-70
2021/01/01 01:49:43;;;;;;;51.67;26.05;;;;;;;4.72;79.74;99396.91;8672155;33;20283;-70
2021/01/01 01:54:48;;;;;;;44.17;23.20;;;;;;;4.73;79.60;99400.38;8719423;33;20185;-69
2021/01/01 01:59:56;;;;;;;79.18;34.67;;;;;;;4.69;79.45;99402.38;8719040;33;20145;-70
2021/01/01 02:04:59;;;;;;;50.08;24.33;;;;;;;4.62;79.48;99404.50;8719624;33;20357;-71
2021/01/01 02:10:03;;;;;;;75.07;31.27;;;;;;;4.49;79.20;99415.88;8719124;33;20215;-70
2021/01/01 02:15:07;;;;;;;74.03;33.72;;;;;;;4.34;79.51;99407.88;8694480;33;20191;-70
2021/01/01 02:20:12;;;;;;;68.43;30.17;;;;;;;4.22;79.47;99411.19;8718274;33;20681;-73
2021/01/01 02:25:15;;;;;;;63.73;31.60;;;;;;;4.09;79.43;99418.13;8718945;33;20176;-73
2021/01/01 02:30:18;;;;;;;61.97;30.53;;;;;;;4.04;79.70;99423.66;8718424;33;20836;-70
2021/01/01 02:35:22;;;;;;;49.30;25.33;;;;;;;4.01;79.74;99423.84;8718751;33;20637;-70
2021/01/01 02:40:25;;;;;;;57.37;27.50;;;;;;;4.02;80.16;99441.41;8718247;33;20611;-70
2021/01/01 02:45:28;;;;;;;54.00;26.53;;;;;;;3.99;79.94;99438.91;8718967;33;20676;-70
2021/01/01 02:50:30;;;;;;;64.07;29.70;;;;;;;3.85;79.92;99441.47;8717276;33;20217;-70
2021/01/01 02:55:34;;;;;;;66.53;30.13;;;;;;;3.85;80.22;99452.88;8718157;33;20450;-69
2021/01/01 03:00:39;;;;;;;65.23;30.33;;;;;;;3.84;80.49;99445.91;8717648;33;20259;-70
2021/01/01 03:05:43;;;;;;;67.73;29.80;;;;;;;3.91;80.61;99441.97;8718561;33;20183;-70
2021/01/01 03:10:46;;;;;;;62.37;29.00;;;;;;;4.04;80.57;99439.53;8717024;33;20230;-69
2021/01/01 03:15:48;;;;;;;68.43;30.53;;;;;;;4.08;80.66;99434.91;8716671;33;21627;-70
2021/01/01 03:20:52;;;;;;;69.33;33.23;;;;;;;4.10;80.80;99441.81;8717398;33;20148;-72
2021/01/01 03:25:56;;;;;;;60.27;29.07;;;;;;;4.10;80.50;99433.91;8718574;33;20180;-70
2021/01/01 03:30:58;;;;;;;61.20;27.47;;;;;;;4.14;80.37;99442.50;8717226;33;21451;-70
2021/01/01 03:36:03;;;;;;;60.63;25.33;;;;;;;4.08;80.73;99443.69;8717999;33;20202;-70
2021/01/01 03:41:06;;;;;;;49.93;24.47;;;;;;;4.11;80.45;99440.03;8718308;33;20596;-70
2021/01/01 03:46:08;;;;;;;50.57;24.17;;;;;;;4.18;80.61;99444.91;8718509;33;20193;-70
2021/01/01 03:51:11;;;;;;;48.35;23.65;;;;;;;4.26;80.69;99439.19;8717606;33;20282;-70
2021/01/01 03:56:14;;;;;;;46.83;21.38;;;;;;;4.28;80.52;99437.31;8717945;33;20141;-71
2021/01/01 04:01:17;;;;;;;42.83;21.10;;;;;;;4.40;80.41;99449.84;8717887;33;20760;-70
2021/01/01 04:06:19;;;;;;;55.33;25.40;;;;;;;4.35;80.07;99437.81;8718202;33;20243;-71
2021/01/01 04:11:22;;;;;;;52.70;25.13;;;;;;;4.34;80.52;99438.78;8693031;33;20288;-70
2021/01/01 04:16:24;;;;;;;59.42;27.27;;;;;;;4.40;80.31;99436.63;8717580;33;20326;-70
2021/01/01 04:21:27;;;;;;;53.40;26.23;;;;;;;4.43;80.10;99447.03;8717626;33;20534;-71
2021/01/01 04:26:30;;;;;;;54.05;27.10;;;;;;;4.40;80.42;99447.19;8717740;33;20252;-70
2021/01/01 04:31:34;;;;;;;53.97;27.33;;;;;;;4.50;80.04;99454.59;8716865;33;20170;-73
2021/01/01 04:36:37;;;;;;;58.78;26.88;;;;;;;4.49;79.88;99444.97;8692580;33;20188;-72
2021/01/01 04:41:41;;;;;;;53.47;25.80;;;;;;;4.50;79.92;99451.94;8717071;33;20922;-70
2021/01/01 04:46:44;;;;;;;54.13;25.93;;;;;;;4.46;79.49;99454.78;8717089;33;20687;-70
2021/01/01 04:51:46;;;;;;;49.80;25.30;;;;;;;4.38;79.58;99454.34;8716872;33;20761;-70
2021/01/01 04:56:50;;;;;;;51.60;24.83;;;;;;;4.30;79.51;99461.88;8717042;33;20987;-73
2021/01/01 05:01:52;;;;;;;49.53;23.43;;;;;;;4.16;79.51;99459.97;8716156;33;20204;-71
2021/01/01 05:06:56;;;;;;;50.10;23.65;;;;;;;4.08;79.58;99462.19;8715673;33;20547;-70
2021/01/01 05:12:09;;;;;;;49.25;22.88;;;;;;;4.05;79.60;99458.88;8715113;33;20314;-71
2021/01/01 05:17:12;;;;;;;54.40;21.33;;;;;;;3.99;79.57;99466.19;8690652;33;20138;-71
2021/01/01 05:22:14;;;;;;;49.90;22.00;;;;;;;3.97;79.51;99476.00;8715062;33;20595;-71
2021/01/01 05:27:18;;;;;;;45.38;20.25;;;;;;;3.97;79.87;99486.56;8715111;33;20128;-72
2021/01/01 05:32:24;;;;;;;47.53;20.70;;;;;;;4.01;79.91;99480.19;8716506;33;21967;-72
2021/01/01 05:37:29;;;;;;;42.58;19.50;;;;;;;3.98;79.64;99476.88;8718541;33;20148;-71
2021/01/01 05:42:33;;;;;;;43.03;21.47;;;;;;;3.85;79.44;99481.09;8719573;33;20309;-71
2021/01/01 05:47:35;;;;;;;46.07;20.93;;;;;;;3.70;79.59;99494.22;8720145;33;20169;-73
2021/01/01 05:52:38;;;;;;;48.00;21.30;;;;;;;3.67;79.89;99496.97;8718824;33;20179;-72
2021/01/01 05:57:41;;;;;;;45.80;20.07;;;;;;;3.67;79.80;99496.97;8694672;33;20599;-71
2021/01/01 06:02:46;;;;;;;39.30;19.63;;;;;;;3.62;79.92;99501.69;8719712;33;21990;-71
2021/01/01 06:07:51;;;;;;;45.87;20.37;;;;;;;3.56;79.85;99501.97;8719333;33;20694;-71
2021/01/01 06:12:57;;;;;;;56.53;22.40;;;;;;;3.48;79.98;99506.78;8719077;33;20287;-71
2021/01/01 06:18:06;;;;;;;45.30;19.33;;;;;;;3.41;79.93;99508.91;8718711;33;20589;-71
2021/01/01 06:23:18;;;;;;;41.47;19.63;;;;;;;3.43;80.49;99517.63;8718778;33;21892;-71
2021/01/01 06:28:22;;;;;;;42.87;18.57;;;;;;;3.45;80.66;99520.16;8718951;33;20125;-72
2021/01/01 06:33:24;;;;;;;43.47;18.83;;;;;;;3.42;80.70;99529.09;8718484;33;20168;-72
2021/01/01 06:38:36;;;;;;;37.70;17.73;;;;;;;3.39;80.67;99534.53;8718511;33;20152;-72
2021/01/01 06:43:55;;;;;;;40.17;18.03;;;;;;;3.30;80.87;99542.94;8693631;33;20143;-74
2021/01/01 06:48:57;;;;;;;49.63;20.07;;;;;;;3.12;80.73;99552.59;8716860;33;20234;-72
2021/01/01 06:54:14;;;;;;;41.90;19.40;;;;;;;3.01;80.82;99550.50;8718070;33;20273;-72
2021/01/01 06:59:17;;;;;;;35.80;15.77;;;;;;;2.95;81.92;99550.81;8717544;33;20543;-71
2021/01/01 07:04:19;;;;;;;39.07;17.23;;;;;;;2.90;81.94;99568.63;8718505;33;20282;-71
2021/01/01 07:09:36;;;;;;;19.10;8.90;;;;;;;2.73;82.28;99568.59;8717791;33;20233;-71
2021/01/01 07:14:39;;;;;;;39.23;16.97;;;;;;;2.72;82.00;99572.19;8717947;33;20641;-73
2021/01/01 07:19:41;;;;;;;40.80;17.27;;;;;;;2.71;82.12;99579.22;8716055;33;20177;-73
2021/01/01 07:24:45;;;;;;;39.83;17.03;;;;;;;2.56;82.90;99585.22;8716503;33;20184;-72
2021/01/01 07:29:48;;;;;;;39.07;14.27;;;;;;;2.50;82.94;99590.78;8716621;33;20270;-71
2021/01/01 07:34:52;;;;;;;45.83;16.17;;;;;;;2.57;83.19;99594.84;8716840;33;20152;-71
2021/01/01 07:39:55;;;;;;;42.83;14.83;;;;;;;2.77;82.89;99596.53;8716695;33;20192;-71
2021/01/01 07:44:59;;;;;;;45.37;15.97;;;;;;;2.64;83.16;99601.53;8717885;33;21059;-73
2021/01/01 07:50:01;;;;;;;33.63;13.73;;;;;;;2.59;83.25;99593.00;8716386;33;21163;-71
2021/01/01 07:55:06;;;;;;;34.27;13.33;;;;;;;2.81;83.40;99608.66;8716188;33;20187;-71
2021/01/01 08:00:11;;;;;;;36.60;16.20;;;;;;;2.92;83.02;99614.28;8716776;33;20412;-71
2021/01/01 08:05:17;;;;;;;43.60;17.33;;;;;;;2.97;82.97;99616.72;8692471;33;20195;-74
2021/01/01 08:10:31;;;;;;;37.90;16.77;;;;;;;3.05;82.82;99615.41;8717113;33;20247;-72
2021/01/01 08:15:34;;;;;;;35.70;14.53;;;;;;;3.07;82.81;99617.94;8716378;33;20760;-71
2021/01/01 08:20:37;;;;;;;33.00;14.07;;;;;;;3.11;82.78;99622.16;8716017;33;20268;-71
2021/01/01 08:25:49;;;;;;;37.23;15.83;;;;;;;3.16;82.56;99621.97;8716768;33;20201;-71
2021/01/01 08:30:57;;;;;;;31.23;13.07;;;;;;;3.30;82.87;99630.06;8715501;33;21117;-71
2021/01/01 08:36:01;;;;;;;45.43;16.87;;;;;;;3.35;82.29;99630.69;8715217;33;20195;-71
2021/01/01 08:41:05;;;;;;;35.77;16.90;;;;;;;3.48;82.03;99637.09;8711861;33;20186;-71
2021/01/01 08:46:15;;;;;;;45.07;18.50;;;;;;;3.60;81.85;99634.75;8716226;33;20152;-71
2021/01/01 08:51:31;;;;;;;40.90;16.97;;;;;;;3.65;81.42;99644.16;8715194;33;20184;-71
2021/01/01 08:56:34;;;;;;;50.60;20.80;;;;;;;3.62;81.33;99646.06;8715443;33;20194;-71
2021/01/01 09:01:38;;;;;;;44.27;17.53;;;;;;;3.63;81.43;99651.28;8715509;33;20891;-71
2021/01/01 09:06:54;;;;;;;50.20;20.10;;;;;;;3.75;81.12;99649.81;8716704;33;20183;-73
2021/01/01 09:12:12;;;;;;;51.70;21.77;;;;;;;3.64;81.81;99658.28;8720454;33;20160;-70
2021/01/01 09:17:15;;;;;;;50.53;17.13;;;;;;;3.86;80.79;99660.69;8720446;33;20166;-71
2021/01/01 09:22:19;;;;;;;62.10;23.73;;;;;;;4.14;80.79;99660.16;8720170;33;20182;-71
2021/01/01 09:27:25;;;;;;;64.20;25.70;;;;;;;4.40;79.68;99669.34;8720461;33;20132;-71
2021/01/01 09:32:28;;;;;;;67.33;27.37;;;;;;;4.49;79.26;99665.38;8695644;33;20188;-71
2021/01/01 09:37:30;;;;;;;69.18;25.05;;;;;;;4.60;78.98;99675.38;8717734;33;21360;-71
2021/01/01 09:42:33;;;;;;;69.73;27.20;;;;;;;4.64;78.77;99669.84;8718243;33;20720;-70
2021/01/01 09:47:36;;;;;;;76.35;28.90;;;;;;;4.58;78.98;99679.88;8715648;33;20678;-73
2021/01/01 09:52:40;;;;;;;63.33;28.70;;;;;;;5.00;77.83;99678.50;8696217;33;20430;-68
2021/01/01 09:57:42;;;;;;;80.25;28.58;;;;;;;5.40;76.43;99678.91;8719163;33;20152;-71
2021/01/01 10:02:46;;;;;;;65.93;29.10;;;;;;;5.96;74.49;99686.28;8693855;33;20227;-72
2021/01/01 10:07:48;;;;;;;63.38;26.38;;;;;;;5.99;74.42;99686.09;8718840;33;20228;-68
2021/01/01 10:12:52;;;;;;;64.68;27.58;;;;;;;6.17;73.30;99692.13;8718740;33;20249;-73
2021/01/01 10:17:55;;;;;;;56.28;25.15;;;;;;;5.87;74.10;99700.06;8717737;33;20245;-71
2021/01/01 10:22:58;;;;;;;54.13;22.20;;;;;;;5.74;74.46;99705.22;8718166;33;20322;-71
2021/01/01 10:28:00;;;;;;;50.08;18.85;;;;;;;5.72;74.47;99698.28;8718153;33;20183;-70
2021/01/01 10:33:04;;;;;;;48.08;18.92;;;;;;;5.79;73.47;99716.41;8717854;33;21015;-71
2021/01/01 10:38:06;;;;;;;44.03;18.35;;;;;;;5.65;73.67;99708.41;8717516;33;20248;-71
2021/01/01 10:43:09;;;;;;;47.80;17.98;;;;;;;5.83;73.24;99710.91;8718366;33;20632;-70
2021/01/01 10:48:12;;;;;;;46.80;19.83;;;;;;;5.63;73.83;99707.63;8718240;33;21577;-71
2021/01/01 10:53:14;;;;;;;35.08;15.48;;;;;;;5.52;74.05;99712.69;8717449;33;20243;-70
2021/01/01 10:58:23;;;;;;;41.78;16.88;;;;;;;5.63;73.88;99709.44;8716340;33;20237;-70
2021/01/01 11:03:26;;;;;;;40.58;16.63;;;;;;;6.32;71.49;99703.59;8715835;33;20187;-69
2021/01/01 11:08:29;;;;;;;38.22;15.45;;;;;;;6.72;69.88;99702.97;8715702;33;20459;-70
2021/01/01 11:13:31;;;;;;;37.38;16.77;;;;;;;6.23;70.75;99709.47;8689278;33;20144;-69
2021/01/01 12:23:05;;;;;;;28.48;12.70;;;;;;;5.59;71.98;99682.22;8714404;33;20632;-69
2021/01/01 12:28:09;;;;;;;27.33;11.75;;;;;;;5.37;72.41;99676.44;8715410;33;20652;-69
2021/01/01 12:33:11;;;;;;;31.40;13.95;;;;;;;5.33;72.05;99689.88;8714584;33;20462;-69
2021/01/01 12:38:15;;;;;;;36.35;14.30;;;;;;;5.64;72.12;99690.78;8713629;33;21117;-69
2021/01/01 12:43:17;;;;;;;27.85;12.38;;;;;;;5.41;71.82;99684.16;8718421;33;20218;-70
2021/01/01 12:48:20;;;;;;;32.35;14.40;;;;;;;5.43;71.88;99674.31;8714013;33;20199;-70
2021/01/01 12:53:23;;;;;;;21.17;9.73;;;;;;;5.26;71.51;99685.00;8723550;33;20195;-69
2021/01/01 12:58:28;;;;;;;26.95;12.75;;;;;;;5.48;71.90;99682.00;8723590;33;20148;-69
2021/01/01 13:03:30;;;;;;;31.40;13.68;;;;;;;5.78;71.65;99682.00;8722867;33;20187;-69
2021/01/01 13:08:33;;;;;;;28.27;11.77;;;;;;;5.74;71.24;99673.41;8723330;33;21519;-69
2021/01/01 13:13:36;;;;;;;29.95;12.50;;;;;;;5.77;70.69;99685.63;8724037;33;22043;-70
2021/01/01 13:18:41;;;;;;;33.60;13.73;;;;;;;5.77;71.24;99685.63;8724488;33;20187;-69
2021/01/01 13:23:44;;;;;;;34.90;14.90;;;;;;;5.77;71.31;99686.47;8708697;33;20842;-69
2021/01/01 13:28:47;;;;;;;30.63;12.52;;;;;;;5.68;71.66;99692.31;8724102;33;20849;-70
2021/01/01 13:33:50;;;;;;;32.63;14.60;;;;;;;5.73;72.30;99695.56;8724489;33;20592;-71
2021/01/01 13:38:53;;;;;;;44.03;17.13;;;;;;;5.71;72.58;99716.00;8723992;33;20199;-73
2021/01/01 13:43:57;;;;;;;35.97;17.05;;;;;;;5.95;72.76;99708.44;8723721;33;20183;-71
2021/01/01 13:49:00;;;;;;;42.90;19.50;;;;;;;5.79;73.38;99723.50;8723876;33;20179;-71
2021/01/01 13:54:04;;;;;;;37.15;16.67;;;;;;;5.83;72.87;99719.72;8720094;33;20183;-70
2021/01/01 13:59:06;;;;;;;40.20;17.15;;;;;;;5.82;72.67;99722.47;8718393;33;20196;-71
2021/01/01 14:04:09;;;;;;;42.50;19.08;;;;;;;5.87;72.97;99715.09;8717075;33;20231;-69
2021/01/01 14:09:12;;;;;;;40.75;18.95;;;;;;;5.83;73.10;99732.97;8717194;33;20243;-70
2021/01/01 14:14:14;;;;;;;39.75;18.38;;;;;;;5.46;74.11;99726.28;8719921;33;20183;-70
2021/01/01 14:19:17;;;;;;;47.67;19.47;;;;;;;5.42;74.77;99730.88;8721171;33;20286;-70
2021/01/01 14:24:20;;;;;;;46.22;19.63;;;;;;;5.44;74.96;99731.66;8708131;33;21410;-70
2021/01/01 14:29:23;;;;;;;45.58;19.60;;;;;;;5.52;75.02;99740.03;8715211;33;20688;-69
2021/01/01 14:34:25;;;;;;;42.83;19.95;;;;;;;5.52;75.14;99739.19;8718107;33;20188;-69
2021/01/01 14:39:28;;;;;;;49.70;20.45;;;;;;;5.45;75.46;99740.44;8717426;33;20198;-69
2021/01/01 14:44:31;;;;;;;55.10;21.02;;;;;;;5.50;75.32;99741.06;8717319;33;20291;-69
2021/01/01 14:49:34;;;;;;;53.72;21.85;;;;;;;5.54;75.26;99740.81;8717284;33;20159;-70
2021/01/01 14:54:37;;;;;;;50.10;21.25;;;;;;;5.56;74.85;99748.66;8715579;33;20168;-70
2021/01/01 14:59:41;;;;;;;48.50;20.60;;;;;;;5.66;74.73;99749.00;8714895;33;20545;-70
2021/01/01 15:04:43;;;;;;;47.10;20.25;;;;;;;5.61;74.66;99751.03;8714830;33;20677;-70
2021/01/01 15:09:47;;;;;;;51.10;21.42;;;;;;;5.55;74.64;99752.25;8711314;33;22235;-71
2021/01/01 15:14:49;;;;;;;51.10;20.67;;;;;;;5.61;75.15;99746.59;8714957;33;21712;-70
2021/01/01 15:19:51;;;;;;;46.20;19.35;;;;;;;5.53;75.49;99757.63;8714551;33;20199;-69
2021/01/01 15:24:55;;;;;;;59.85;21.75;;;;;;;5.40;75.77;99759.25;8716109;33;20607;-71
2021/01/01 15:29:57;;;;;;;47.28;21.17;;;;;;;5.52;75.51;99763.88;8714386;33;20152;-70
2021/01/01 15:35:00;;;;;;;47.70;21.42;;;;;;;5.53;75.58;99764.72;8715542;33;20434;-69
2021/01/01 15:40:04;;;;;;;51.53;21.65;;;;;;;5.53;75.69;99773.53;8709723;33;20158;-69
2021/01/01 15:45:08;;;;;;;45.40;18.70;;;;;;;5.30;76.74;99774.81;8716020;33;20199;-70
2021/01/01 15:50:11;;;;;;;48.53;20.45;;;;;;;5.38;76.50;99773.53;8714789;33;20204;-69
2021/01/01 15:55:15;;;;;;;42.95;17.70;;;;;;;5.37;76.64;99785.91;8715791;33;20450;-70
2021/01/01 16:00:18;;;;;;;41.67;18.27;;;;;;;5.48;76.44;99783.50;8714981;33;20148;-72
2021/01/01 16:05:21;;;;;;;42.08;18.23;;;;;;;5.48;76.69;99790.63;8716351;33;20515;-70
2021/01/01 16:10:24;;;;;;;42.00;16.58;;;;;;;5.44;76.75;99789.94;8715652;33;20340;-70
2021/01/01 16:15:27;;;;;;;46.67;18.70;;;;;;;5.51;76.54;99790.44;8690141;33;20448;-70
2021/01/01 16:20:29;;;;;;;32.63;15.07;;;;;;;5.34;76.83;99800.16;8713933;33;20192;-71
2021/01/01 16:25:33;;;;;;;41.72;17.05;;;;;;;5.51;76.06;99796.63;8715300;33;20239;-71
2021/01/01 16:30:36;;;;;;;35.67;17.17;;;;;;;5.52;75.91;99797.47;8714735;33;20207;-70
2021/01/01 16:35:38;;;;;;;35.20;15.18;;;;;;;5.47;76.09;99797.72;8714635;33;20187;-71
2021/01/01 16:40:42;;;;;;;22.63;10.48;;;;;;;5.38;76.11;99805.31;8713359;33;20125;-69
2021/01/01 16:45:44;;;;;;;37.72;15.10;;;;;;;5.46;75.98;99805.75;8714452;33;20182;-69
2021/01/01 16:50:46;;;;;;;37.00;14.27;;;;;;;5.62;75.81;99814.53;8713604;33;20325;-69
2021/01/01 16:55:49;;;;;;;39.97;15.60;;;;;;;5.62;75.73;99814.53;8711117;33;20187;-72
2021/01/01 17:00:54;;;;;;;34.55;17.25;;;;;;;5.69;75.35;99813.28;8709353;33;25603;-70
2021/01/01 17:05:57;;;;;;;32.95;16.35;;;;;;;5.47;76.21;99815.41;8713679;33;20229;-71
2021/01/01 17:11:05;;;;;;;35.92;16.17;;;;;;;5.63;75.73;99823.38;8714060;33;20160;-69
2021/01/01 17:16:08;;;;;;;40.67;16.88;;;;;;;5.58;76.04;99820.97;8714167;33;21043;-70
2021/01/01 17:21:10;;;;;;;37.17;15.82;;;;;;;5.57;75.74;99827.22;8713708;33;20329;-69
2021/01/01 17:26:16;;;;;;;46.22;18.73;;;;;;;5.46;76.07;99827.81;8708486;33;20184;-70
2021/01/01 17:31:21;;;;;;;44.95;18.80;;;;;;;5.64;75.71;99827.72;8718395;33;20218;-70
2021/01/01 17:36:24;;;;;;;44.92;18.63;;;;;;;5.55;75.87;99831.75;8717812;33;21091;-70
2021/01/01 17:41:29;;;;;;;41.80;18.15;;;;;;;5.52;76.10;99837.22;8717741;33;20206;-71
2021/01/01 17:46:31;;;;;;;44.83;18.10;;;;;;;5.57;75.94;99833.38;8718028;33;20837;-70
2021/01/01 17:51:34;;;;;;;41.20;18.63;;;;;;;5.48;76.41;99836.50;8717514;33;20222;-70
2021/01/01 17:56:38;;;;;;;49.65;21.17;;;;;;;5.54;76.36;99840.66;8718399;33;20753;-70
2021/01/01 18:01:40;;;;;;;41.25;18.48;;;;;;;5.46;76.54;99846.34;8718430;33;20211;-70
2021/01/01 18:06:45;;;;;;;44.88;19.80;;;;;;;5.49;76.54;99840.03;8718949;33;20215;-70
2021/01/01 18:11:48;;;;;;;51.47;19.25;;;;;;;5.49;76.51;99840.03;8718625;33;20179;-71
2021/01/01 18:16:54;;;;;;;47.03;19.17;;;;;;;5.55;76.04;99842.34;8718171;33;20231;-70
2021/01/01 18:21:56;;;;;;;43.40;19.50;;;;;;;5.51;76.13;99844.31;8716542;33;20148;-69
2021/01/01 18:27:01;;;;;;;44.97;19.05;;;;;;;5.51;75.99;99843.44;8693505;33;20743;-72
2021/01/01 18:32:05;;;;;;;41.58;18.55;;;;;;;5.65;75.57;99847.97;8717327;33;20282;-71
2021/01/01 18:37:08;;;;;;;45.17;17.90;;;;;;;5.67;75.34;99854.06;8718003;33;20526;-73
2021/01/01 18:42:15;;;;;;;42.67;18.88;;;;;;;5.49;75.69;99848.84;8716632;33;20179;-70
2021/01/01 18:47:19;;;;;;;46.22;20.88;;;;;;;5.49;75.46;99866.53;8717385;33;20171;-69
2021/01/01 18:52:22;;;;;;;49.03;19.88;;;;;;;5.15;76.88;99854.22;8716935;33;20274;-69
2021/01/01 18:57:28;;;;;;;41.53;19.42;;;;;;;5.26;76.45;99860.66;8717376;33;20507;-69
2021/01/01 19:03:19;;;;;;;47.83;21.20;;;;;;;5.33;76.28;99864.69;8716345;33;20318;-71
2021/01/01 19:08:21;;;;;;;51.60;20.70;;;;;;;5.26;76.65;99873.88;8700255;33;21971;-70
2021/01/01 19:13:35;;;;;;;26.48;11.98;;;;;;;5.21;76.65;99878.59;8716349;33;20195;-69
2021/01/01 19:19:01;;;;;;;39.72;18.90;;;;;;;5.21;76.76;99883.00;8689200;33;20296;-70
2021/01/01 19:24:13;;;;;;;44.77;19.10;;;;;;;5.37;76.18;99893.66;8716775;33;20423;-70
2021/01/01 19:29:19;;;;;;;44.40;19.70;;;;;;;5.31;76.22;99892.19;8691381;33;21402;-71
2021/01/01 19:35:08;;;;;;;47.58;20.75;;;;;;;5.34;76.06;99902.63;8716279;33;20278;-71
2021/01/01 19:41:16;;;;;;;50.47;19.67;;;;;;;5.32;76.21;99909.78;8715333;33;21463;-69
2021/01/01 19:46:45;;;;;;;46.65;20.13;;;;;;;5.33;76.22;99912.38;8688363;33;20470;-70
2021/01/01 19:52:08;;;;;;;51.22;21.25;;;;;;;5.30;76.31;99923.13;8714566;33;20828;-69
2021/01/01 19:57:31;;;;;;;48.10;20.23;;;;;;;5.32;76.16;99923.91;8715367;33;21868;-70
2021/01/01 20:02:54;;;;;;;51.60;21.95;;;;;;;5.31;76.07;99922.19;8714083;33;20191;-70
2021/01/01 20:08:03;;;;;;;44.58;18.63;;;;;;;5.29;76.09;99932.03;8716127;33;20589;-71
2021/01/01 20:13:07;;;;;;;48.38;20.10;;;;;;;5.35;75.81;99938.78;8715513;33;20195;-69
2021/01/01 20:18:12;;;;;;;57.85;21.08;;;;;;;5.21;76.12;99943.94;8713588;33;20155;-73
2021/01/01 20:23:16;;;;;;;47.83;19.27;;;;;;;5.32;75.95;99945.09;8715369;33;20155;-70
2021/01/01 20:28:27;;;;;;;51.85;19.60;;;;;;;5.40;75.48;99949.97;8716407;33;20454;-69
2021/01/01 20:33:32;;;;;;;50.45;20.40;;;;;;;5.28;75.93;99956.78;8715221;33;20294;-71
2021/01/01 20:39:16;;;;;;;39.72;18.45;;;;;;;5.30;75.79;99962.00;8715950;33;21113;-69
2021/01/01 20:44:58;;;;;;;55.03;19.00;;;;;;;5.19;75.79;99962.56;8715262;33;20190;-69
2021/01/01 20:50:48;;;;;;;47.90;19.75;;;;;;;5.35;75.44;99954.69;8692146;33;20474;-71
2021/01/01 20:56:06;;;;;;;52.37;19.73;;;;;;;5.22;76.03;99967.69;8715347;33;20218;-69
2021/01/01 21:01:12;;;;;;;48.58;18.85;;;;;;;5.34;75.63;99975.00;8690689;33;20582;-70
2021/01/01 21:06:17;;;;;;;48.17;17.27;;;;;;;4.95;76.82;99975.25;8720593;33;20236;-72
2021/01/01 21:12:00;;;;;;;44.72;18.65;;;;;;;5.30;75.79;99972.63;8719788;33;20183;-68
2021/01/01 21:17:10;;;;;;;50.63;21.15;;;;;;;5.32;76.05;99973.38;8617598;33;20786;-69
2021/01/01 21:22:44;;;;;;;45.85;17.98;;;;;;;5.26;75.89;99976.34;8719085;33;20282;-69
2021/01/01 21:28:34;;;;;;;44.90;21.45;;;;;;;5.19;76.14;99980.25;8719724;33;20467;-72
2021/01/01 21:34:12;;;;;;;50.17;18.77;;;;;;;5.20;76.11;99981.97;8714995;33;20550;-70
2021/01/01 21:40:08;;;;;;;44.85;20.67;;;;;;;5.10;76.37;99986.84;8693806;33;20152;-70
2021/01/01 21:45:17;;;;;;;44.15;17.73;;;;;;;5.10;76.31;99984.19;8718726;33;20611;-69
2021/01/01 21:50:22;;;;;;;51.87;20.33;;;;;;;5.24;76.10;99984.38;8718520;33;21467;-69
2021/01/01 21:55:25;;;;;;;59.78;21.83;;;;;;;5.18;76.30;99994.41;8718596;33;20592;-70
2021/01/01 22:00:28;;;;;;;50.15;20.05;;;;;;;5.22;76.35;99994.19;8693473;33;20728;-69
2021/01/01 22:05:31;;;;;;;41.73;18.37;;;;;;;5.27;76.05;100002.75;8718598;33;20262;-73
2021/01/01 22:10:34;;;;;;;37.40;17.58;;;;;;;5.13;76.22;100002.59;8718424;33;20707;-70
2021/01/01 22:15:36;;;;;;;48.27;19.57;;;;;;;5.21;76.37;100012.78;8716371;33;20187;-70
2021/01/01 22:20:39;;;;;;;44.60;18.40;;;;;;;5.14;76.59;100006.97;8717912;33;20209;-69
2021/01/01 22:25:43;;;;;;;39.03;15.53;;;;;;;5.14;76.47;100009.59;8718337;33;20599;-69
2021/01/01 22:30:45;;;;;;;48.28;19.50;;;;;;;5.11;76.68;100015.91;8717391;33;20190;-71
2021/01/01 22:35:48;;;;;;;42.13;16.42;;;;;;;4.91;77.20;100013.41;8718268;33;20236;-71
2021/01/01 22:40:51;;;;;;;40.88;17.55;;;;;;;5.20;76.41;100019.88;8714641;33;20194;-70
2021/01/01 22:45:53;;;;;;;42.08;18.77;;;;;;;5.00;77.06;100020.91;8717754;33;20303;-71
2021/01/01 22:50:56;;;;;;;43.42;18.40;;;;;;;5.19;76.50;100027.94;8717722;33;20683;-70
2021/01/01 22:55:59;;;;;;;51.05;19.77;;;;;;;5.22;76.59;100020.69;8717564;33;20245;-70
2021/01/01 23:01:03;;;;;;;40.63;16.55;;;;;;;5.25;76.58;100024.97;8717275;33;20734;-70
2021/01/01 23:06:08;;;;;;;53.63;20.25;;;;;;;5.20;76.98;100022.53;8717923;33;20179;-71
2021/01/01 23:11:14;;;;;;;45.08;18.75;;;;;;;5.15;77.14;100029.00;8717923;33;21106;-70
2021/01/01 23:16:20;;;;;;;52.13;19.33;;;;;;;5.20;77.06;100034.94;8717167;33;20654;-71
2021/01/01 23:21:23;;;;;;;45.13;19.90;;;;;;;5.14;77.37;100036.09;8717167;33;20233;-71
2021/01/01 23:26:42;;;;;;;50.95;18.33;;;;;;;5.21;77.36;100037.50;8716266;33;20144;-71
2021/01/01 23:32:27;;;;;;;53.88;20.60;;;;;;;5.23;77.67;100050.66;8717634;33;20201;-69
2021/01/01 23:37:47;;;;;;;51.97;20.65;;;;;;;5.26;77.55;100048.72;8719545;33;20461;-71
2021/01/01 23:42:53;;;;;;;45.87;21.03;;;;;;;5.32;77.44;100044.88;8716922;33;20148;-74
2021/01/01 23:48:03;;;;;;;50.70;20.58;;;;;;;5.33;77.60;100054.56;8716805;33;20176;-70
2021/01/01 23:53:07;;;;;;;44.78;21.30;;;;;;;5.40;77.37;100053.31;8715683;33;20191;-71
2021/01/01 23:58:11;;;;;;;43.40;18.63;;;;;;;5.41;77.62;100048.88;8716047;33;20191;-74
